sensor_id;sensor_type;location;lat;lon;timestamp;P1;durP1;ratioP1;P2;durP2;ratioP2
66886;SDS011;67239;51.680;5.976;2023-09-19T00:01:41;13.23;;;3.22;;
66886;SDS011;67239;51.680;5.976;2023-09-19T00:04:08;13.65;;;3.25;;
66886;SDS011;67239;51.680;5.976;2023-09-19T00:06:37;14.23;;;3.30;;
66886;SDS011;67239;51.680;5.976;2023-09-19T00:09:04;14.68;;;2.83;;
66886;SDS011;67239;51.680;5.976;2023-09-19T00:11:32;13.20;;;3.22;;
66886;SDS011;67239;51.680;5.976;2023-09-19T00:14:01;14.25;;;3.40;;
66886;SDS011;67239;51.680;5.976;2023-09-19T00:16:28;12.60;;;2.63;;
66886;SDS011;67239;51.680;5.976;2023-09-19T00:18:55;11.70;;;2.58;;
66886;SDS011;67239;51.680;5.976;2023-09-19T00:21:22;13.30;;;2.88;;
66886;SDS011;67239;51.680;5.976;2023-09-19T00:23:49;12.20;;;2.65;;
66886;SDS011;67239;51.680;5.976;2023-09-19T00:26:18;11.00;;;2.75;;
66886;SDS011;67239;51.680;5.976;2023-09-19T00:28:47;11.75;;;2.72;;
66886;SDS011;67239;51.680;5.976;2023-09-19T00:31:15;15.25;;;2.60;;
66886;SDS011;67239;51.680;5.976;2023-09-19T00:33:42;10.98;;;2.83;;
66886;SDS011;67239;51.680;5.976;2023-09-19T00:36:09;12.77;;;2.60;;
66886;SDS011;67239;51.680;5.976;2023-09-19T00:38:36;12.68;;;2.85;;
66886;SDS011;67239;51.680;5.976;2023-09-19T00:41:03;8.45;;;2.22;;
66886;SDS011;67239;51.680;5.976;2023-09-19T00:43:31;11.48;;;2.72;;
66886;SDS011;67239;51.680;5.976;2023-09-19T00:46:01;13.05;;;2.60;;
66886;SDS011;67239;51.680;5.976;2023-09-19T00:48:31;14.20;;;2.67;;
66886;SDS011;67239;51.680;5.976;2023-09-19T00:51:08;12.88;;;2.90;;
66886;SDS011;67239;51.680;5.976;2023-09-19T00:53:36;12.07;;;2.90;;
66886;SDS011;67239;51.680;5.976;2023-09-19T00:56:04;12.27;;;2.53;;
66886;SDS011;67239;51.680;5.976;2023-09-19T00:58:34;11.95;;;2.78;;
66886;SDS011;67239;51.680;5.976;2023-09-19T01:01:04;8.13;;;2.58;;
66886;SDS011;67239;51.680;5.976;2023-09-19T01:03:36;12.00;;;2.75;;
66886;SDS011;67239;51.680;5.976;2023-09-19T01:06:05;11.73;;;2.83;;
66886;SDS011;67239;51.680;5.976;2023-09-19T01:08:34;11.38;;;2.90;;
66886;SDS011;67239;51.680;5.976;2023-09-19T01:11:09;9.98;;;2.33;;
66886;SDS011;67239;51.680;5.976;2023-09-19T01:17:13;12.88;;;2.78;;
66886;SDS011;67239;51.680;5.976;2023-09-19T01:20:37;12.85;;;2.72;;
66886;SDS011;67239;51.680;5.976;2023-09-19T01:25:51;12.30;;;2.60;;
66886;SDS011;67239;51.680;5.976;2023-09-19T01:28:45;13.73;;;2.75;;
66886;SDS011;67239;51.680;5.976;2023-09-19T01:31:28;12.50;;;2.55;;
66886;SDS011;67239;51.680;5.976;2023-09-19T01:36:35;9.85;;;2.45;;
66886;SDS011;67239;51.680;5.976;2023-09-19T01:44:09;11.88;;;2.58;;
66886;SDS011;67239;51.680;5.976;2023-09-19T01:46:47;9.40;;;2.40;;
66886;SDS011;67239;51.680;5.976;2023-09-19T01:52:10;9.32;;;2.22;;
66886;SDS011;67239;51.680;5.976;2023-09-19T01:54:48;9.73;;;2.50;;
66886;SDS011;67239;51.680;5.976;2023-09-19T02:00:07;14.45;;;2.78;;
66886;SDS011;67239;51.680;5.976;2023-09-19T02:02:39;12.18;;;2.83;;
66886;SDS011;67239;51.680;5.976;2023-09-19T02:05:12;8.60;;;2.45;;
66886;SDS011;67239;51.680;5.976;2023-09-19T02:07:39;11.82;;;2.30;;
66886;SDS011;67239;51.680;5.976;2023-09-19T02:10:07;10.57;;;2.38;;
66886;SDS011;67239;51.680;5.976;2023-09-19T02:12:37;8.07;;;2.47;;
66886;SDS011;67239;51.680;5.976;2023-09-19T02:15:05;9.77;;;3.03;;
66886;SDS011;67239;51.680;5.976;2023-09-19T02:17:33;8.30;;;2.40;;
66886;SDS011;67239;51.680;5.976;2023-09-19T02:20:01;11.05;;;2.30;;
66886;SDS011;67239;51.680;5.976;2023-09-19T02:22:37;15.02;;;2.70;;
66886;SDS011;67239;51.680;5.976;2023-09-19T02:25:05;11.73;;;2.40;;
66886;SDS011;67239;51.680;5.976;2023-09-19T02:27:35;15.48;;;2.80;;
66886;SDS011;67239;51.680;5.976;2023-09-19T02:30:03;12.43;;;2.67;;
66886;SDS011;67239;51.680;5.976;2023-09-19T02:32:33;10.88;;;2.38;;
66886;SDS011;67239;51.680;5.976;2023-09-19T02:35:03;13.90;;;2.47;;
66886;SDS011;67239;51.680;5.976;2023-09-19T02:37:31;10.98;;;2.38;;
66886;SDS011;67239;51.680;5.976;2023-09-19T02:39:59;10.40;;;2.17;;
66886;SDS011;67239;51.680;5.976;2023-09-19T02:42:26;12.77;;;2.80;;
66886;SDS011;67239;51.680;5.976;2023-09-19T02:44:53;10.55;;;2.13;;
66886;SDS011;67239;51.680;5.976;2023-09-19T02:47:21;13.68;;;2.80;;
66886;SDS011;67239;51.680;5.976;2023-09-19T02:49:48;11.45;;;2.70;;
66886;SDS011;67239;51.680;5.976;2023-09-19T02:52:15;9.93;;;2.35;;
66886;SDS011;67239;51.680;5.976;2023-09-19T02:54:42;12.18;;;2.70;;
66886;SDS011;67239;51.680;5.976;2023-09-19T02:57:11;8.93;;;2.47;;
66886;SDS011;67239;51.680;5.976;2023-09-19T02:59:41;15.10;;;2.60;;
66886;SDS011;67239;51.680;5.976;2023-09-19T03:02:09;10.50;;;2.70;;
66886;SDS011;67239;51.680;5.976;2023-09-19T03:04:36;10.68;;;2.38;;
66886;SDS011;67239;51.680;5.976;2023-09-19T03:07:04;9.85;;;2.58;;
66886;SDS011;67239;51.680;5.976;2023-09-19T03:09:31;11.90;;;2.72;;
66886;SDS011;67239;51.680;5.976;2023-09-19T03:11:58;11.95;;;2.25;;
66886;SDS011;67239;51.680;5.976;2023-09-19T03:14:26;7.90;;;2.22;;
66886;SDS011;67239;51.680;5.976;2023-09-19T03:16:58;10.75;;;2.50;;
66886;SDS011;67239;51.680;5.976;2023-09-19T03:19:26;12.18;;;2.55;;
66886;SDS011;67239;51.680;5.976;2023-09-19T03:21:57;9.50;;;2.40;;
66886;SDS011;67239;51.680;5.976;2023-09-19T03:24:24;13.93;;;2.58;;
66886;SDS011;67239;51.680;5.976;2023-09-19T03:26:52;10.45;;;2.28;;
66886;SDS011;67239;51.680;5.976;2023-09-19T03:29:19;12.20;;;2.63;;
66886;SDS011;67239;51.680;5.976;2023-09-19T03:31:46;12.25;;;2.70;;
66886;SDS011;67239;51.680;5.976;2023-09-19T03:34:13;10.80;;;2.50;;
66886;SDS011;67239;51.680;5.976;2023-09-19T03:36:41;7.35;;;2.50;;
66886;SDS011;67239;51.680;5.976;2023-09-19T03:39:08;11.48;;;2.45;;
66886;SDS011;67239;51.680;5.976;2023-09-19T03:41:35;10.88;;;2.40;;
66886;SDS011;67239;51.680;5.976;2023-09-19T03:44:04;9.20;;;2.50;;
66886;SDS011;67239;51.680;5.976;2023-09-19T03:46:31;11.02;;;2.45;;
66886;SDS011;67239;51.680;5.976;2023-09-19T03:48:59;9.85;;;2.28;;
66886;SDS011;67239;51.680;5.976;2023-09-19T03:51:27;10.70;;;2.38;;
66886;SDS011;67239;51.680;5.976;2023-09-19T03:53:54;8.45;;;2.20;;
66886;SDS011;67239;51.680;5.976;2023-09-19T03:56:21;8.25;;;2.03;;
66886;SDS011;67239;51.680;5.976;2023-09-19T03:58:48;8.30;;;2.33;;
66886;SDS011;67239;51.680;5.976;2023-09-19T04:01:16;9.50;;;2.15;;
66886;SDS011;67239;51.680;5.976;2023-09-19T04:03:45;10.02;;;2.40;;
66886;SDS011;67239;51.680;5.976;2023-09-19T04:06:14;11.55;;;2.28;;
66886;SDS011;67239;51.680;5.976;2023-09-19T04:08:42;16.00;;;2.50;;
66886;SDS011;67239;51.680;5.976;2023-09-19T04:11:11;8.82;;;2.67;;
66886;SDS011;67239;51.680;5.976;2023-09-19T04:13:38;10.25;;;2.53;;
66886;SDS011;67239;51.680;5.976;2023-09-19T04:16:06;11.57;;;2.30;;
66886;SDS011;67239;51.680;5.976;2023-09-19T04:18:37;14.93;;;3.13;;
66886;SDS011;67239;51.680;5.976;2023-09-19T04:21:06;13.88;;;2.60;;
66886;SDS011;67239;51.680;5.976;2023-09-19T04:23:34;9.68;;;2.22;;
66886;SDS011;67239;51.680;5.976;2023-09-19T04:26:02;8.18;;;2.03;;
66886;SDS011;67239;51.680;5.976;2023-09-19T04:28:34;12.38;;;2.45;;
66886;SDS011;67239;51.680;5.976;2023-09-19T04:31:03;11.05;;;2.47;;
66886;SDS011;67239;51.680;5.976;2023-09-19T04:33:30;17.63;;;2.75;;
66886;SDS011;67239;51.680;5.976;2023-09-19T04:35:57;11.02;;;2.47;;
66886;SDS011;67239;51.680;5.976;2023-09-19T04:38:33;12.90;;;2.72;;
66886;SDS011;67239;51.680;5.976;2023-09-19T04:41:01;8.60;;;2.38;;
66886;SDS011;67239;51.680;5.976;2023-09-19T04:43:28;12.15;;;2.60;;
66886;SDS011;67239;51.680;5.976;2023-09-19T04:45:57;12.10;;;2.63;;
66886;SDS011;67239;51.680;5.976;2023-09-19T04:48:27;9.68;;;2.40;;
66886;SDS011;67239;51.680;5.976;2023-09-19T04:50:55;9.07;;;2.30;;
66886;SDS011;67239;51.680;5.976;2023-09-19T04:53:22;10.98;;;2.33;;
66886;SDS011;67239;51.680;5.976;2023-09-19T04:55:52;10.57;;;2.20;;
66886;SDS011;67239;51.680;5.976;2023-09-19T04:58:19;12.40;;;2.42;;
66886;SDS011;67239;51.680;5.976;2023-09-19T05:00:46;11.50;;;2.70;;
66886;SDS011;67239;51.680;5.976;2023-09-19T05:03:14;12.77;;;2.35;;
66886;SDS011;67239;51.680;5.976;2023-09-19T05:05:41;7.38;;;2.20;;
66886;SDS011;67239;51.680;5.976;2023-09-19T05:08:09;11.88;;;2.28;;
66886;SDS011;67239;51.680;5.976;2023-09-19T05:10:36;10.90;;;2.45;;
66886;SDS011;67239;51.680;5.976;2023-09-19T05:13:04;10.45;;;2.58;;
66886;SDS011;67239;51.680;5.976;2023-09-19T05:15:31;16.58;;;2.67;;
66886;SDS011;67239;51.680;5.976;2023-09-19T05:17:59;9.15;;;2.22;;
66886;SDS011;67239;51.680;5.976;2023-09-19T05:20:26;12.10;;;2.55;;
66886;SDS011;67239;51.680;5.976;2023-09-19T05:22:57;10.18;;;2.55;;
66886;SDS011;67239;51.680;5.976;2023-09-19T05:25:31;11.65;;;2.20;;
66886;SDS011;67239;51.680;5.976;2023-09-19T05:27:59;9.20;;;2.17;;
66886;SDS011;67239;51.680;5.976;2023-09-19T05:30:34;10.48;;;2.67;;
66886;SDS011;67239;51.680;5.976;2023-09-19T05:33:06;16.48;;;2.38;;
66886;SDS011;67239;51.680;5.976;2023-09-19T05:35:35;11.77;;;2.60;;
66886;SDS011;67239;51.680;5.976;2023-09-19T05:38:06;12.25;;;2.55;;
66886;SDS011;67239;51.680;5.976;2023-09-19T05:40:35;10.98;;;2.40;;
66886;SDS011;67239;51.680;5.976;2023-09-19T05:43:03;12.27;;;2.90;;
66886;SDS011;67239;51.680;5.976;2023-09-19T05:45:32;14.95;;;3.08;;
66886;SDS011;67239;51.680;5.976;2023-09-19T05:48:12;11.02;;;2.63;;
66886;SDS011;67239;51.680;5.976;2023-09-19T05:50:42;8.32;;;2.35;;
66886;SDS011;67239;51.680;5.976;2023-09-19T05:53:11;14.70;;;2.90;;
66886;SDS011;67239;51.680;5.976;2023-09-19T05:55:42;13.80;;;2.83;;
66886;SDS011;67239;51.680;5.976;2023-09-19T05:58:09;11.68;;;2.67;;
66886;SDS011;67239;51.680;5.976;2023-09-19T06:00:37;15.48;;;2.80;;
66886;SDS011;67239;51.680;5.976;2023-09-19T06:03:06;13.25;;;2.80;;
66886;SDS011;67239;51.680;5.976;2023-09-19T06:05:33;11.45;;;2.38;;
66886;SDS011;67239;51.680;5.976;2023-09-19T06:08:00;10.50;;;2.28;;
66886;SDS011;67239;51.680;5.976;2023-09-19T06:10:28;11.93;;;2.40;;
66886;SDS011;67239;51.680;5.976;2023-09-19T06:12:56;14.25;;;3.05;;
66886;SDS011;67239;51.680;5.976;2023-09-19T06:15:25;13.70;;;2.65;;
66886;SDS011;67239;51.680;5.976;2023-09-19T06:17:53;9.48;;;2.55;;
66886;SDS011;67239;51.680;5.976;2023-09-19T06:20:23;18.42;;;2.80;;
66886;SDS011;67239;51.680;5.976;2023-09-19T06:22:52;11.07;;;2.80;;
66886;SDS011;67239;51.680;5.976;2023-09-19T06:25:20;12.93;;;2.45;;
66886;SDS011;67239;51.680;5.976;2023-09-19T06:27:49;12.68;;;2.75;;
66886;SDS011;67239;51.680;5.976;2023-09-19T06:30:23;8.05;;;2.25;;
66886;SDS011;67239;51.680;5.976;2023-09-19T06:32:56;11.88;;;2.30;;
66886;SDS011;67239;51.680;5.976;2023-09-19T06:35:24;10.25;;;2.78;;
66886;SDS011;67239;51.680;5.976;2023-09-19T06:37:56;10.18;;;2.55;;
66886;SDS011;67239;51.680;5.976;2023-09-19T06:40:25;12.82;;;2.72;;
66886;SDS011;67239;51.680;5.976;2023-09-19T06:42:52;8.88;;;2.22;;
66886;SDS011;67239;51.680;5.976;2023-09-19T06:45:20;12.68;;;2.40;;
66886;SDS011;67239;51.680;5.976;2023-09-19T06:47:49;13.05;;;2.20;;
66886;SDS011;67239;51.680;5.976;2023-09-19T06:50:19;11.82;;;2.80;;
66886;SDS011;67239;51.680;5.976;2023-09-19T06:52:49;14.25;;;2.75;;
66886;SDS011;67239;51.680;5.976;2023-09-19T06:55:18;12.73;;;2.78;;
66886;SDS011;67239;51.680;5.976;2023-09-19T06:57:47;13.02;;;2.70;;
66886;SDS011;67239;51.680;5.976;2023-09-19T07:00:15;14.90;;;2.95;;
66886;SDS011;67239;51.680;5.976;2023-09-19T07:02:55;10.82;;;2.42;;
66886;SDS011;67239;51.680;5.976;2023-09-19T07:05:28;12.88;;;2.85;;
66886;SDS011;67239;51.680;5.976;2023-09-19T07:07:55;12.98;;;2.47;;
66886;SDS011;67239;51.680;5.976;2023-09-19T07:10:26;10.98;;;2.78;;
66886;SDS011;67239;51.680;5.976;2023-09-19T07:15:27;11.55;;;2.80;;
66886;SDS011;67239;51.680;5.976;2023-09-19T07:17:57;15.73;;;2.28;;
66886;SDS011;67239;51.680;5.976;2023-09-19T07:20:24;14.90;;;2.92;;
66886;SDS011;67239;51.680;5.976;2023-09-19T07:22:58;10.90;;;2.30;;
66886;SDS011;67239;51.680;5.976;2023-09-19T07:25:29;10.77;;;2.40;;
66886;SDS011;67239;51.680;5.976;2023-09-19T07:27:59;10.65;;;2.45;;
66886;SDS011;67239;51.680;5.976;2023-09-19T07:30:27;15.70;;;2.58;;
66886;SDS011;67239;51.680;5.976;2023-09-19T07:32:56;10.90;;;2.50;;
66886;SDS011;67239;51.680;5.976;2023-09-19T07:35:23;9.98;;;2.28;;
66886;SDS011;67239;51.680;5.976;2023-09-19T07:37:50;10.77;;;2.63;;
66886;SDS011;67239;51.680;5.976;2023-09-19T07:40:21;13.40;;;2.83;;
66886;SDS011;67239;51.680;5.976;2023-09-19T07:42:53;16.23;;;2.70;;
66886;SDS011;67239;51.680;5.976;2023-09-19T07:45:21;12.43;;;2.47;;
66886;SDS011;67239;51.680;5.976;2023-09-19T07:47:49;11.82;;;3.00;;
66886;SDS011;67239;51.680;5.976;2023-09-19T07:50:18;11.88;;;2.38;;
66886;SDS011;67239;51.680;5.976;2023-09-19T07:52:47;10.68;;;2.47;;
66886;SDS011;67239;51.680;5.976;2023-09-19T07:55:17;11.15;;;2.63;;
66886;SDS011;67239;51.680;5.976;2023-09-19T07:57:47;12.55;;;2.72;;
66886;SDS011;67239;51.680;5.976;2023-09-19T08:00:14;14.95;;;2.72;;
66886;SDS011;67239;51.680;5.976;2023-09-19T08:02:42;12.50;;;2.88;;
66886;SDS011;67239;51.680;5.976;2023-09-19T08:05:10;18.60;;;3.03;;
66886;SDS011;67239;51.680;5.976;2023-09-19T08:07:39;16.25;;;3.22;;
66886;SDS011;67239;51.680;5.976;2023-09-19T08:10:09;13.27;;;2.50;;
66886;SDS011;67239;51.680;5.976;2023-09-19T08:12:42;12.18;;;2.78;;
66886;SDS011;67239;51.680;5.976;2023-09-19T08:15:14;14.63;;;2.90;;
66886;SDS011;67239;51.680;5.976;2023-09-19T08:17:46;19.58;;;2.40;;
66886;SDS011;67239;51.680;5.976;2023-09-19T08:20:15;13.15;;;2.40;;
66886;SDS011;67239;51.680;5.976;2023-09-19T08:22:49;12.93;;;2.80;;
66886;SDS011;67239;51.680;5.976;2023-09-19T08:25:23;15.23;;;2.72;;
66886;SDS011;67239;51.680;5.976;2023-09-19T08:27:55;12.50;;;2.65;;
66886;SDS011;67239;51.680;5.976;2023-09-19T08:30:24;15.55;;;2.67;;
66886;SDS011;67239;51.680;5.976;2023-09-19T08:32:57;13.57;;;2.53;;
66886;SDS011;67239;51.680;5.976;2023-09-19T08:35:28;15.02;;;2.78;;
66886;SDS011;67239;51.680;5.976;2023-09-19T08:37:55;15.82;;;2.72;;
66886;SDS011;67239;51.680;5.976;2023-09-19T08:40:23;9.73;;;2.47;;
66886;SDS011;67239;51.680;5.976;2023-09-19T08:42:53;10.98;;;2.55;;
66886;SDS011;67239;51.680;5.976;2023-09-19T08:45:23;15.90;;;3.00;;
66886;SDS011;67239;51.680;5.976;2023-09-19T08:56:34;14.07;;;2.47;;
66886;SDS011;67239;51.680;5.976;2023-09-19T08:59:07;11.50;;;2.75;;
66886;SDS011;67239;51.680;5.976;2023-09-19T09:01:35;14.18;;;2.97;;
66886;SDS011;67239;51.680;5.976;2023-09-19T09:04:03;12.50;;;2.88;;
66886;SDS011;67239;51.680;5.976;2023-09-19T09:06:35;17.08;;;3.20;;
66886;SDS011;67239;51.680;5.976;2023-09-19T09:09:06;13.75;;;2.75;;
66886;SDS011;67239;51.680;5.976;2023-09-19T09:11:35;14.07;;;2.83;;
66886;SDS011;67239;51.680;5.976;2023-09-19T09:14:06;10.70;;;2.47;;
66886;SDS011;67239;51.680;5.976;2023-09-19T09:16:34;14.77;;;2.45;;
66886;SDS011;67239;51.680;5.976;2023-09-19T09:19:01;14.23;;;2.67;;
66886;SDS011;67239;51.680;5.976;2023-09-19T09:21:28;13.18;;;2.75;;
66886;SDS011;67239;51.680;5.976;2023-09-19T09:23:56;17.25;;;2.75;;
66886;SDS011;67239;51.680;5.976;2023-09-19T09:26:41;12.82;;;2.72;;
66886;SDS011;67239;51.680;5.976;2023-09-19T09:29:14;10.63;;;2.28;;
66886;SDS011;67239;51.680;5.976;2023-09-19T09:31:47;14.45;;;2.58;;
66886;SDS011;67239;51.680;5.976;2023-09-19T09:34:15;12.70;;;2.50;;
66886;SDS011;67239;51.680;5.976;2023-09-19T09:36:44;17.33;;;2.53;;
66886;SDS011;67239;51.680;5.976;2023-09-19T09:39:15;13.38;;;2.45;;
66886;SDS011;67239;51.680;5.976;2023-09-19T09:41:59;10.18;;;2.63;;
66886;SDS011;67239;51.680;5.976;2023-09-19T09:44:26;13.93;;;2.40;;
66886;SDS011;67239;51.680;5.976;2023-09-19T09:46:58;12.35;;;2.47;;
66886;SDS011;67239;51.680;5.976;2023-09-19T09:49:49;11.38;;;2.03;;
66886;SDS011;67239;51.680;5.976;2023-09-19T09:52:21;16.60;;;2.72;;
66886;SDS011;67239;51.680;5.976;2023-09-19T09:55:00;8.30;;;2.42;;
66886;SDS011;67239;51.680;5.976;2023-09-19T09:57:33;16.23;;;2.72;;
66886;SDS011;67239;51.680;5.976;2023-09-19T10:00:01;18.20;;;2.30;;
66886;SDS011;67239;51.680;5.976;2023-09-19T10:02:39;13.10;;;2.17;;
66886;SDS011;67239;51.680;5.976;2023-09-19T10:07:47;14.43;;;2.60;;
66886;SDS011;67239;51.680;5.976;2023-09-19T10:13:10;13.95;;;2.50;;
66886;SDS011;67239;51.680;5.976;2023-09-19T10:15:47;8.32;;;2.22;;
66886;SDS011;67239;51.680;5.976;2023-09-19T10:18:25;12.15;;;2.72;;
66886;SDS011;67239;51.680;5.976;2023-09-19T10:20:56;19.60;;;2.63;;
66886;SDS011;67239;51.680;5.976;2023-09-19T10:23:24;11.13;;;2.08;;
66886;SDS011;67239;51.680;5.976;2023-09-19T10:25:56;18.42;;;2.72;;
66886;SDS011;67239;51.680;5.976;2023-09-19T10:28:26;13.23;;;2.30;;
66886;SDS011;67239;51.680;5.976;2023-09-19T10:30:55;10.02;;;2.10;;
66886;SDS011;67239;51.680;5.976;2023-09-19T10:33:24;10.68;;;2.10;;
66886;SDS011;67239;51.680;5.976;2023-09-19T10:35:53;12.05;;;2.20;;
66886;SDS011;67239;51.680;5.976;2023-09-19T10:38:23;10.57;;;2.17;;
66886;SDS011;67239;51.680;5.976;2023-09-19T10:40:53;11.73;;;1.88;;
66886;SDS011;67239;51.680;5.976;2023-09-19T10:43:29;7.45;;;1.73;;
66886;SDS011;67239;51.680;5.976;2023-09-19T10:46:02;8.68;;;2.00;;
66886;SDS011;67239;51.680;5.976;2023-09-19T10:48:34;10.45;;;2.10;;
66886;SDS011;67239;51.680;5.976;2023-09-19T10:51:15;9.15;;;2.05;;
66886;SDS011;67239;51.680;5.976;2023-09-19T10:54:10;10.70;;;2.03;;
66886;SDS011;67239;51.680;5.976;2023-09-19T10:56:43;13.55;;;2.35;;
66886;SDS011;67239;51.680;5.976;2023-09-19T10:59:18;12.55;;;2.50;;
66886;SDS011;67239;51.680;5.976;2023-09-19T11:01:52;16.38;;;2.15;;
66886;SDS011;67239;51.680;5.976;2023-09-19T11:07:11;9.38;;;2.33;;
66886;SDS011;67239;51.680;5.976;2023-09-19T11:09:53;8.07;;;1.85;;
66886;SDS011;67239;51.680;5.976;2023-09-19T11:15:02;12.77;;;2.10;;
66886;SDS011;67239;51.680;5.976;2023-09-19T11:17:35;8.68;;;2.00;;
66886;SDS011;67239;51.680;5.976;2023-09-19T11:30:39;13.70;;;2.08;;
66886;SDS011;67239;51.680;5.976;2023-09-19T11:36:04;10.23;;;2.13;;
66886;SDS011;67239;51.680;5.976;2023-09-19T11:43:47;7.68;;;1.85;;
66886;SDS011;67239;51.680;5.976;2023-09-19T11:46:22;6.10;;;1.60;;
66886;SDS011;67239;51.680;5.976;2023-09-19T11:48:50;8.48;;;1.70;;
66886;SDS011;67239;51.680;5.976;2023-09-19T11:51:25;5.60;;;1.50;;
66886;SDS011;67239;51.680;5.976;2023-09-19T11:53:56;9.52;;;1.83;;
66886;SDS011;67239;51.680;5.976;2023-09-19T11:56:28;16.95;;;2.65;;
66886;SDS011;67239;51.680;5.976;2023-09-19T11:58:55;8.20;;;1.63;;
66886;SDS011;67239;51.680;5.976;2023-09-19T12:04:02;8.25;;;1.65;;
66886;SDS011;67239;51.680;5.976;2023-09-19T12:06:31;20.17;;;2.20;;
66886;SDS011;67239;51.680;5.976;2023-09-19T12:08:59;11.20;;;2.00;;
66886;SDS011;67239;51.680;5.976;2023-09-19T12:11:29;5.30;;;1.30;;
66886;SDS011;67239;51.680;5.976;2023-09-19T12:14:01;7.20;;;1.30;;
66886;SDS011;67239;51.680;5.976;2023-09-19T12:16:29;8.77;;;1.42;;
66886;SDS011;67239;51.680;5.976;2023-09-19T12:18:57;6.68;;;1.23;;
66886;SDS011;67239;51.680;5.976;2023-09-19T12:21:54;6.93;;;1.30;;
66886;SDS011;67239;51.680;5.976;2023-09-19T12:24:31;13.97;;;1.83;;
66886;SDS011;67239;51.680;5.976;2023-09-19T12:27:02;10.48;;;1.80;;
66886;SDS011;67239;51.680;5.976;2023-09-19T12:29:41;7.85;;;1.48;;
66886;SDS011;67239;51.680;5.976;2023-09-19T12:32:12;10.20;;;1.42;;
66886;SDS011;67239;51.680;5.976;2023-09-19T12:34:40;3.28;;;1.17;;
66886;SDS011;67239;51.680;5.976;2023-09-19T12:37:11;11.23;;;1.58;;
66886;SDS011;67239;51.680;5.976;2023-09-19T12:39:49;10.65;;;1.35;;
66886;SDS011;67239;51.680;5.976;2023-09-19T12:42:24;6.40;;;1.50;;
66886;SDS011;67239;51.680;5.976;2023-09-19T12:44:59;8.40;;;1.40;;
66886;SDS011;67239;51.680;5.976;2023-09-19T12:47:28;6.72;;;1.08;;
66886;SDS011;67239;51.680;5.976;2023-09-19T12:52:40;8.73;;;1.15;;
66886;SDS011;67239;51.680;5.976;2023-09-19T12:55:27;9.23;;;1.17;;
66886;SDS011;67239;51.680;5.976;2023-09-19T13:00:33;7.28;;;1.10;;
66886;SDS011;67239;51.680;5.976;2023-09-19T13:03:10;3.72;;;0.82;;
66886;SDS011;67239;51.680;5.976;2023-09-19T13:05:50;5.18;;;0.93;;
66886;SDS011;67239;51.680;5.976;2023-09-19T13:08:29;4.72;;;0.82;;
66886;SDS011;67239;51.680;5.976;2023-09-19T13:11:07;4.72;;;1.08;;
66886;SDS011;67239;51.680;5.976;2023-09-19T13:13:40;7.65;;;1.15;;
66886;SDS011;67239;51.680;5.976;2023-09-19T13:16:17;5.75;;;1.08;;
66886;SDS011;67239;51.680;5.976;2023-09-19T13:18:50;7.03;;;0.93;;
66886;SDS011;67239;51.680;5.976;2023-09-19T13:21:27;4.97;;;0.85;;
66886;SDS011;67239;51.680;5.976;2023-09-19T13:26:53;9.85;;;1.20;;
66886;SDS011;67239;51.680;5.976;2023-09-19T13:29:21;8.00;;;1.00;;
66886;SDS011;67239;51.680;5.976;2023-09-19T13:31:49;3.78;;;0.90;;
66886;SDS011;67239;51.680;5.976;2023-09-19T13:34:20;4.38;;;0.85;;
66886;SDS011;67239;51.680;5.976;2023-09-19T13:36:47;5.55;;;0.95;;
66886;SDS011;67239;51.680;5.976;2023-09-19T13:39:15;17.23;;;1.60;;
66886;SDS011;67239;51.680;5.976;2023-09-19T13:41:44;12.32;;;1.38;;
66886;SDS011;67239;51.680;5.976;2023-09-19T13:44:14;5.47;;;0.93;;
66886;SDS011;67239;51.680;5.976;2023-09-19T13:46:43;7.38;;;1.33;;
66886;SDS011;67239;51.680;5.976;2023-09-19T13:49:13;3.40;;;0.75;;
66886;SDS011;67239;51.680;5.976;2023-09-19T13:51:41;7.05;;;1.00;;
66886;SDS011;67239;51.680;5.976;2023-09-19T13:54:11;8.63;;;1.02;;
66886;SDS011;67239;51.680;5.976;2023-09-19T13:56:39;13.63;;;1.35;;
66886;SDS011;67239;51.680;5.976;2023-09-19T13:59:07;7.75;;;0.90;;
66886;SDS011;67239;51.680;5.976;2023-09-19T14:01:34;7.13;;;1.20;;
66886;SDS011;67239;51.680;5.976;2023-09-19T14:04:02;7.60;;;1.05;;
66886;SDS011;67239;51.680;5.976;2023-09-19T14:06:29;7.65;;;1.20;;
66886;SDS011;67239;51.680;5.976;2023-09-19T14:08:56;5.88;;;1.08;;
66886;SDS011;67239;51.680;5.976;2023-09-19T14:11:23;14.13;;;1.42;;
66886;SDS011;67239;51.680;5.976;2023-09-19T14:13:51;2.33;;;0.70;;
66886;SDS011;67239;51.680;5.976;2023-09-19T14:16:22;7.95;;;0.80;;
66886;SDS011;67239;51.680;5.976;2023-09-19T14:18:51;6.35;;;0.80;;
66886;SDS011;67239;51.680;5.976;2023-09-19T14:21:19;3.90;;;0.82;;
66886;SDS011;67239;51.680;5.976;2023-09-19T14:23:46;5.80;;;1.27;;
66886;SDS011;67239;51.680;5.976;2023-09-19T14:26:13;8.55;;;1.00;;
66886;SDS011;67239;51.680;5.976;2023-09-19T14:28:40;4.57;;;0.73;;
66886;SDS011;67239;51.680;5.976;2023-09-19T14:31:09;11.88;;;1.20;;
66886;SDS011;67239;51.680;5.976;2023-09-19T14:33:40;10.35;;;1.10;;
66886;SDS011;67239;51.680;5.976;2023-09-19T14:36:08;9.65;;;1.60;;
66886;SDS011;67239;51.680;5.976;2023-09-19T14:38:37;6.75;;;1.00;;
66886;SDS011;67239;51.680;5.976;2023-09-19T14:41:07;5.25;;;1.20;;
66886;SDS011;67239;51.680;5.976;2023-09-19T14:43:35;3.60;;;0.90;;
66886;SDS011;67239;51.680;5.976;2023-09-19T14:46:05;6.03;;;0.90;;
66886;SDS011;67239;51.680;5.976;2023-09-19T14:48:39;9.55;;;0.98;;
66886;SDS011;67239;51.680;5.976;2023-09-19T14:51:10;7.28;;;0.80;;
66886;SDS011;67239;51.680;5.976;2023-09-19T14:53:42;10.60;;;1.33;;
66886;SDS011;67239;51.680;5.976;2023-09-19T14:56:10;2.63;;;0.88;;
66886;SDS011;67239;51.680;5.976;2023-09-19T14:58:41;9.68;;;1.25;;
66886;SDS011;67239;51.680;5.976;2023-09-19T15:01:12;6.80;;;1.23;;
66886;SDS011;67239;51.680;5.976;2023-09-19T15:03:40;5.78;;;1.02;;
66886;SDS011;67239;51.680;5.976;2023-09-19T15:06:12;7.82;;;1.20;;
66886;SDS011;67239;51.680;5.976;2023-09-19T15:08:44;9.15;;;1.05;;
66886;SDS011;67239;51.680;5.976;2023-09-19T15:11:14;6.03;;;1.20;;
66886;SDS011;67239;51.680;5.976;2023-09-19T15:13:46;11.98;;;1.23;;
66886;SDS011;67239;51.680;5.976;2023-09-19T15:16:24;5.70;;;0.82;;
66886;SDS011;67239;51.680;5.976;2023-09-19T15:18:51;5.60;;;1.30;;
66886;SDS011;67239;51.680;5.976;2023-09-19T15:21:36;3.72;;;0.85;;
66886;SDS011;67239;51.680;5.976;2023-09-19T15:24:09;5.72;;;1.35;;
66886;SDS011;67239;51.680;5.976;2023-09-19T15:26:36;6.15;;;1.08;;
66886;SDS011;67239;51.680;5.976;2023-09-19T15:29:10;6.13;;;0.90;;
66886;SDS011;67239;51.680;5.976;2023-09-19T15:31:37;6.78;;;1.23;;
66886;SDS011;67239;51.680;5.976;2023-09-19T15:34:12;4.72;;;1.00;;
66886;SDS011;67239;51.680;5.976;2023-09-19T15:36:43;4.15;;;1.10;;
66886;SDS011;67239;51.680;5.976;2023-09-19T15:39:14;5.70;;;1.13;;
66886;SDS011;67239;51.680;5.976;2023-09-19T15:41:45;7.18;;;1.20;;
66886;SDS011;67239;51.680;5.976;2023-09-19T15:44:16;16.40;;;1.50;;
66886;SDS011;67239;51.680;5.976;2023-09-19T15:46:45;7.50;;;1.10;;
66886;SDS011;67239;51.680;5.976;2023-09-19T15:49:15;7.13;;;1.20;;
66886;SDS011;67239;51.680;5.976;2023-09-19T15:51:51;6.70;;;1.23;;
66886;SDS011;67239;51.680;5.976;2023-09-19T15:54:18;5.30;;;0.93;;
66886;SDS011;67239;51.680;5.976;2023-09-19T15:56:45;4.85;;;0.80;;
66886;SDS011;67239;51.680;5.976;2023-09-19T15:59:19;8.30;;;1.25;;
66886;SDS011;67239;51.680;5.976;2023-09-19T16:01:50;6.43;;;1.27;;
66886;SDS011;67239;51.680;5.976;2023-09-19T16:04:17;6.07;;;1.00;;
66886;SDS011;67239;51.680;5.976;2023-09-19T16:06:44;5.43;;;1.13;;
66886;SDS011;67239;51.680;5.976;2023-09-19T16:09:12;5.47;;;0.93;;